createdAt,value
2018-10-21T00:10:13.272Z,3.25
2018-10-21T00:21:15.640Z,3.25
2018-10-21T00:32:16.519Z,3.25
2018-10-21T00:43:17.514Z,3.25
2018-10-21T00:54:19.095Z,3.25
2018-10-21T01:05:21.150Z,3.25
2018-10-21T01:16:22.669Z,3.25
2018-10-21T01:27:25.249Z,3.25
2018-10-21T01:38:27.060Z,3.25
2018-10-21T01:49:27.072Z,3.25
2018-10-21T02:00:29.081Z,3.25
2018-10-21T02:11:32.521Z,3.24
2018-10-21T02:22:35.184Z,3.24
2018-10-21T02:33:37.165Z,3.24
2018-10-21T02:44:39.862Z,3.23
2018-10-21T02:55:42.654Z,3.23
2018-10-21T03:06:44.633Z,3.23
2018-10-21T03:17:46.285Z,3.23
2018-10-21T03:28:48.174Z,3.23
2018-10-21T03:39:49.405Z,3.22
2018-10-21T03:50:51.091Z,3.22
2018-10-21T04:01:52.005Z,3.22
2018-10-21T04:12:55.025Z,3.22
2018-10-21T04:23:57.223Z,3.22
2018-10-21T04:34:59.989Z,3.21
2018-10-21T04:46:02.747Z,3.21
2018-10-21T04:57:05.800Z,3.21
2018-10-21T05:08:09.121Z,3.21
2018-10-21T05:19:12.075Z,3.20
2018-10-21T05:30:12.890Z,3.20
2018-10-21T05:41:14.875Z,3.20
2018-10-21T05:52:16.085Z,3.19
2018-10-21T06:03:17.190Z,3.20
2018-10-21T06:14:19.631Z,3.20
2018-10-21T06:25:21.135Z,3.21
2018-10-21T06:36:23.708Z,3.22
2018-10-21T06:47:25.107Z,3.23
2018-10-21T06:58:25.745Z,3.23
2018-10-21T07:09:27.799Z,3.23
2018-10-21T07:20:23.193Z,3.25
2018-10-21T07:31:23.654Z,3.25
2018-10-21T07:42:09.445Z,3.26
2018-10-21T07:53:00.143Z,3.26
2018-10-21T08:03:54.575Z,3.30
2018-10-21T08:14:53.776Z,3.33
2018-10-21T08:25:49.724Z,3.33
2018-10-21T08:36:47.577Z,3.34
2018-10-21T08:47:46.122Z,3.35
2018-10-21T08:58:45.154Z,3.39
2018-10-21T09:09:40.512Z,3.41
2018-10-21T09:20:31.450Z,3.42
2018-10-21T09:31:25.610Z,3.40
2018-10-21T09:42:21.754Z,3.42
2018-10-21T09:53:11.787Z,3.40
2018-10-21T10:04:11.382Z,3.43
2018-10-21T10:14:57.377Z,3.43
2018-10-21T10:25:46.977Z,3.40
2018-10-21T10:36:48.840Z,3.40
2018-10-21T10:47:50.986Z,3.39
2018-10-21T10:58:51.446Z,3.39
2018-10-21T11:09:46.459Z,3.39
2018-10-21T11:20:47.295Z,3.41
2018-10-21T11:31:41.966Z,3.40
2018-10-21T11:42:42.184Z,3.40
2018-10-21T11:53:39.568Z,3.40
2018-10-21T12:04:39.746Z,3.40
2018-10-21T12:15:36.865Z,3.40
2018-10-21T12:26:39.845Z,3.40
2018-10-21T12:37:31.907Z,3.40
2018-10-21T12:48:19.718Z,3.40
2018-10-21T12:59:15.570Z,3.40
2018-10-21T13:10:17.051Z,3.40
2018-10-21T13:21:13.570Z,3.40
2018-10-21T13:32:16.186Z,3.39
2018-10-21T13:43:16.493Z,3.39
2018-10-21T13:54:10.507Z,3.40
2018-10-21T14:05:03.455Z,3.40
2018-10-21T14:15:57.161Z,3.44
2018-10-21T14:26:58.149Z,3.40
2018-10-21T14:37:59.368Z,3.40
2018-10-21T14:48:55.444Z,3.40
2018-10-21T14:59:46.668Z,3.42
2018-10-21T15:10:37.812Z,3.42
2018-10-21T15:21:26.664Z,3.41
2018-10-21T15:32:25.263Z,3.40
2018-10-21T15:43:19.557Z,3.40
2018-10-21T15:54:18.097Z,3.39
2018-10-21T16:05:18.938Z,3.38
2018-10-21T16:16:18.022Z,3.37
2018-10-21T16:27:14.430Z,3.36
2018-10-21T16:38:10.744Z,3.36
2018-10-21T16:49:09.171Z,3.34
2018-10-21T17:00:10.164Z,3.34
2018-10-21T17:11:10.904Z,3.34
2018-10-21T17:22:12.831Z,3.33
2018-10-21T17:33:11.504Z,3.33
2018-10-21T17:44:06.032Z,3.33
2018-10-21T17:55:06.442Z,3.32
2018-10-21T18:06:08.991Z,3.32
2018-10-21T18:17:10.041Z,3.31
2018-10-21T18:28:12.108Z,3.31
2018-10-21T18:39:13.463Z,3.30
2018-10-21T18:50:14.806Z,3.30
2018-10-21T19:01:17.162Z,3.30
2018-10-21T19:12:19.863Z,3.29
2018-10-21T19:23:21.503Z,3.29
2018-10-21T19:34:23.600Z,3.29
2018-10-21T19:45:25.843Z,3.28
2018-10-21T19:56:28.236Z,3.28
2018-10-21T20:07:26.445Z,3.28
2018-10-21T20:18:27.025Z,3.28
2018-10-21T20:29:27.660Z,3.28
2018-10-21T20:40:27.191Z,3.28
2018-10-21T20:51:27.830Z,3.27
2018-10-21T21:02:23.830Z,3.27
2018-10-21T21:13:25.254Z,3.27
2018-10-21T21:24:26.852Z,3.26
2018-10-21T21:35:24.024Z,3.26
2018-10-21T21:46:25.349Z,3.26
2018-10-21T21:57:27.101Z,3.26
2018-10-21T22:08:27.437Z,3.26
2018-10-21T22:19:27.319Z,3.26
2018-10-21T22:30:28.326Z,3.25
2018-10-21T22:41:28.839Z,3.25
2018-10-21T22:52:29.072Z,3.25
2018-10-21T23:03:30.028Z,3.25
2018-10-21T23:14:32.099Z,3.25
2018-10-21T23:25:33.522Z,3.25
2018-10-21T23:36:35.171Z,3.25
2018-10-21T23:47:38.150Z,3.25
2018-10-21T23:58:40.658Z,3.24
